Terminal Aerodrome Forecast
Issued by NWS Huntsville, AL

Home | Current Version | Previous Version | Text Only | Print | Product List | Glossary On
Versions: 1 2 3 4 5 6 7 8 9 10 11 12
000
FTUS44 KHUN 220543
TAFMSL
TAF
KMSL 220543Z 2206/2306 13004KT P6SM BKN250
     FM221100 13004KT P6SM BKN012
     FM221600 15007KT P6SM BKN025
     FM222000 03005KT P6SM VCSH BKN035
     FM230200 VRB03KT P6SM BKN120=

USA.gov is the U.S. government's official web portal to all federal, state and local government web resources and services.